Time;durP1;ratioP1;P1;durP2;ratioP2;P2;SDS_P1;SDS_P2;PMS_P1;PMS_P2;Temp;Humidity;BMP_temperature;BMP_pressure;BME280_temperature;BME280_humidity;BME280_pressure;Samples;Min_cycle;Max_cycle;Signal;HPM_P1;HPM_P2
2022/08/09 00:02:01;;;;;;;7.90;6.07;;;;;;;16.88;100.00;102664.53;5052771;28;20040;-46
2022/08/09 00:04:27;;;;;;;13.00;6.00;;;;;;;16.84;100.00;102665.88;5056226;28;20059;-46
2022/08/09 00:06:52;;;;;;;10.15;5.80;;;;;;;16.82;100.00;102667.88;5040011;28;20483;-45
2022/08/09 00:09:17;;;;;;;11.73;6.15;;;;;;;16.75;100.00;102664.94;5044515;28;20099;-45
2022/08/09 00:11:45;;;;;;;10.30;5.68;;;;;;;16.76;100.00;102657.69;5054352;28;20426;-47
2022/08/09 00:14:10;;;;;;;10.02;5.43;;;;;;;16.73;100.00;102656.16;5055894;28;20024;-49
2022/08/09 00:16:35;;;;;;;10.68;5.40;;;;;;;16.69;100.00;102657.47;5051357;28;20029;-46
2022/08/09 00:19:01;;;;;;;9.98;5.10;;;;;;;16.69;100.00;102657.47;5045798;28;20111;-45
2022/08/09 00:21:27;;;;;;;8.98;5.15;;;;;;;16.65;100.00;102661.50;5048308;28;20027;-46
2022/08/09 00:23:54;;;;;;;6.88;5.10;;;;;;;16.67;100.00;102655.94;5054771;28;20017;-46
2022/08/09 00:26:19;;;;;;;8.60;5.32;;;;;;;16.65;100.00;102661.50;5043475;28;20446;-47
2022/08/09 00:28:45;;;;;;;6.60;4.78;;;;;;;16.68;100.00;102657.63;5035787;28;20563;-46
2022/08/09 00:31:10;;;;;;;8.27;5.00;;;;;;;16.65;100.00;102650.72;5041542;28;20609;-47
2022/08/09 00:33:35;;;;;;;6.25;4.90;;;;;;;16.60;100.00;102643.06;5054771;28;20032;-47
2022/08/09 00:36:02;;;;;;;9.43;4.65;;;;;;;16.59;100.00;102654.84;5055676;28;20517;-48
2022/08/09 00:38:27;;;;;;;10.10;5.20;;;;;;;16.58;100.00;102655.00;5035926;28;20025;-48
2022/08/09 00:40:53;;;;;;;11.90;5.43;;;;;;;16.52;100.00;102658.34;5034497;28;20028;-46
2022/08/09 00:43:22;;;;;;;8.05;4.57;;;;;;;16.50;100.00;102658.50;5055359;28;20032;-48
2022/08/09 00:45:47;;;;;;;8.13;4.10;;;;;;;16.47;100.00;102660.66;5049715;28;20414;-46
2022/08/09 00:48:12;;;;;;;9.07;4.75;;;;;;;16.45;100.00;102654.59;5036447;28;20043;-47
2022/08/09 00:50:38;;;;;;;10.77;4.70;;;;;;;16.37;100.00;102655.34;5045379;28;20441;-46
2022/08/09 00:53:04;;;;;;;8.30;4.80;;;;;;;16.35;100.00;102660.91;5055549;28;20020;-48
2022/08/09 00:55:29;;;;;;;7.63;4.65;;;;;;;16.36;100.00;102664.44;5054558;28;20050;-47
2022/08/09 00:57:54;;;;;;;6.25;4.85;;;;;;;16.25;100.00;102659.28;5051407;28;20684;-48
2022/08/09 01:00:20;;;;;;;10.43;4.57;;;;;;;16.22;100.00;102664.00;5033977;28;20027;-46
2022/08/09 01:02:48;;;;;;;5.85;4.63;;;;;;;16.20;100.00;102662.44;5035849;28;20107;-47
2022/08/09 01:05:25;;;;;;;12.68;4.60;;;;;;;16.11;100.00;102669.59;5035495;28;20032;-46
2022/08/09 01:08:08;;;;;;;6.28;4.68;;;;;;;16.11;100.00;102664.22;5035679;28;20025;-46
2022/08/09 01:10:57;;;;;;;5.57;4.35;;;;;;;16.15;100.00;102670.16;5037947;28;20059;-47
2022/08/09 01:13:34;;;;;;;7.80;4.60;;;;;;;16.13;100.00;102674.84;5048935;28;20027;-47
2022/08/09 01:16:02;;;;;;;7.35;4.60;;;;;;;16.10;100.00;102667.06;5037763;28;20060;-46
2022/08/09 01:18:30;;;;;;;11.73;4.50;;;;;;;16.05;100.00;102672.91;5035271;28;20417;-46
2022/08/09 01:21:33;;;;;;;9.77;5.05;;;;;;;16.06;100.00;102680.00;5047187;28;20737;-49
2022/08/09 01:24:03;;;;;;;9.52;4.50;;;;;;;16.00;100.00;102672.50;5047495;28;20491;-47
2022/08/09 01:26:50;;;;;;;5.25;4.57;;;;;;;15.96;100.00;102671.97;5035583;28;20025;-50
2022/08/09 01:29:21;;;;;;;8.02;4.70;;;;;;;15.94;100.00;102671.28;5032778;28;20234;-50
2022/08/09 01:31:48;;;;;;;;;;;;;;;16.04;100.00;102672.06;5043207;28;20216;-47
2022/08/09 01:34:18;;;;;;;7.90;4.63;;;;;;;15.92;100.00;102673.28;5054770;28;19908;-48
2022/08/09 01:36:45;;;;;;;10.15;4.97;;;;;;;15.89;100.00;102670.88;5054461;28;20044;-49
2022/08/09 01:39:12;;;;;;;12.00;5.28;;;;;;;15.87;100.00;102672.91;5053890;28;20025;-48
2022/08/09 01:41:40;;;;;;;7.47;4.70;;;;;;;15.81;100.00;102668.09;5041451;28;20047;-47
2022/08/09 01:44:06;;;;;;;8.55;4.72;;;;;;;15.77;100.00;102664.03;5034270;28;20547;-49
2022/08/09 01:46:35;;;;;;;13.63;4.75;;;;;;;15.70;100.00;102660.19;5032507;28;20540;-46
2022/08/09 01:49:08;;;;;;;8.68;4.68;;;;;;;15.73;100.00;102665.28;5042424;28;20506;-50
2022/08/09 01:51:34;;;;;;;9.85;4.68;;;;;;;15.67;100.00;102666.72;5054394;28;20078;-49
2022/08/09 01:54:02;;;;;;;9.20;4.88;;;;;;;15.59;100.00;102664.78;5041177;28;20199;-47
2022/08/09 01:56:29;;;;;;;8.77;4.85;;;;;;;15.52;100.00;102674.47;5048403;28;20395;-48
2022/08/09 01:58:57;;;;;;;11.10;5.25;;;;;;;15.44;100.00;102669.84;5034661;28;20052;-46
2022/08/09 02:01:25;;;;;;;9.40;4.93;;;;;;;15.47;100.00;102679.44;5033379;28;20106;-50
2022/08/09 02:03:53;;;;;;;11.95;5.55;;;;;;;15.39;100.00;102676.63;5034686;28;20416;-46
2022/08/09 02:07:07;;;;;;;11.73;5.50;;;;;;;15.32;100.00;102680.91;5038202;28;20092;-49
2022/08/09 02:09:11;;;;;;;8.25;5.18;;;;;;;15.23;100.00;102675.41;5033172;28;20044;-45
2022/08/09 02:11:38;;;;;;;17.20;5.85;;;;;;;15.27;100.00;102670.59;5035742;28;20052;-45
2022/08/09 02:14:05;;;;;;;9.32;5.40;;;;;;;15.28;100.00;102677.69;5036076;28;20057;-50
2022/08/09 02:16:34;;;;;;;10.02;5.72;;;;;;;15.35;100.00;102672.56;5052107;28;20271;-47
2022/08/09 02:19:00;;;;;;;11.07;5.38;;;;;;;15.27;100.00;102676.84;5034253;28;20024;-50
2022/08/09 02:21:32;;;;;;;9.57;5.65;;;;;;;15.27;100.00;102674.16;5036477;28;20450;-46
2022/08/09 02:24:00;;;;;;;8.38;5.75;;;;;;;15.20;100.00;102664.94;5055037;28;20045;-45
2022/08/09 02:26:28;;;;;;;10.10;5.47;;;;;;;15.21;100.00;102666.66;5045080;28;20024;-46
2022/08/09 02:28:58;;;;;;;10.68;5.55;;;;;;;15.21;100.00;102672.03;5038070;28;20052;-47
2022/08/09 02:31:29;;;;;;;11.35;5.57;;;;;;;15.20;100.00;102666.78;5038816;28;20483;-48
2022/08/09 02:33:59;;;;;;;12.43;5.78;;;;;;;15.21;100.00;102671.19;5058122;28;20190;-46
2022/08/09 02:36:47;;;;;;;8.20;6.35;;;;;;;15.16;100.00;102665.41;5057786;28;20036;-49
2022/08/09 02:39:21;;;;;;;8.43;5.75;;;;;;;15.12;100.00;102656.75;5057232;28;20036;-50
2022/08/09 02:41:55;;;;;;;9.55;5.90;;;;;;;15.10;100.00;102658.75;5056916;28;20362;-46
2022/08/09 02:44:24;;;;;;;8.07;5.72;;;;;;;15.11;100.00;102658.59;5057686;28;20036;-47
2022/08/09 02:46:53;;;;;;;12.02;6.05;;;;;;;15.09;100.00;102657.91;5041446;28;20534;-49
2022/08/09 02:49:19;;;;;;;10.25;5.55;;;;;;;15.09;100.00;102655.22;5058046;28;20103;-50
2022/08/09 02:51:50;;;;;;;14.85;6.30;;;;;;;15.11;100.00;102657.75;5058291;28;20558;-45
2022/08/09 02:54:16;;;;;;;8.50;5.65;;;;;;;15.10;100.00;102654.22;5052036;28;20059;-49
2022/08/09 02:56:46;;;;;;;8.30;6.15;;;;;;;15.09;100.00;102659.75;5047156;28;20112;-46
2022/08/09 02:59:13;;;;;;;11.18;5.88;;;;;;;15.07;100.00;102664.41;5049034;28;20028;-45
2022/08/09 03:01:40;;;;;;;9.25;6.18;;;;;;;15.03;100.00;102660.34;5054772;28;20071;-46
2022/08/09 03:04:08;;;;;;;11.88;6.68;;;;;;;14.97;100.00;102661.78;5057702;28;20533;-45
2022/08/09 03:06:36;;;;;;;9.55;6.32;;;;;;;14.97;100.00;102655.53;5056335;28;20030;-47
2022/08/09 03:09:02;;;;;;;8.30;6.22;;;;;;;14.91;100.00;102648.88;5037440;28;20543;-45
2022/08/09 03:11:27;;;;;;;14.70;6.55;;;;;;;14.92;100.00;102654.13;5036951;28;20110;-44
2022/08/09 03:13:54;;;;;;;10.48;6.38;;;;;;;14.85;100.00;102647.63;5037399;28;20483;-47
2022/08/09 03:16:21;;;;;;;12.43;6.50;;;;;;;14.82;100.00;102655.16;5036073;28;20494;-47
2022/08/09 03:18:47;;;;;;;11.32;6.45;;;;;;;14.83;100.00;102654.97;5042463;28;20104;-46
2022/08/09 03:21:15;;;;;;;9.90;6.60;;;;;;;14.78;100.00;102659.09;5038185;28;20048;-46
2022/08/09 03:23:45;;;;;;;15.25;6.57;;;;;;;14.80;100.00;102651.75;5044523;28;20021;-45
2022/08/09 03:26:13;;;;;;;15.68;6.70;;;;;;;14.77;100.00;102654.75;5036637;28;20366;-45
2022/08/09 03:28:39;;;;;;;15.15;6.63;;;;;;;14.72;100.00;102653.31;5038769;28;20498;-46
2022/08/09 03:31:05;;;;;;;15.50;7.05;;;;;;;14.69;100.00;102653.59;5042303;28;20480;-48
2022/08/09 03:33:31;;;;;;;15.23;7.18;;;;;;;14.70;100.00;102657.16;5054089;28;20024;-45
2022/08/09 03:35:57;;;;;;;14.48;7.45;;;;;;;14.65;100.00;102654.88;5047846;28;20024;-47
2022/08/09 03:38:22;;;;;;;12.23;6.85;;;;;;;14.60;100.00;102662.53;5035189;28;20631;-45
2022/08/09 03:40:47;;;;;;;14.48;6.93;;;;;;;14.59;100.00;102671.59;5036529;28;20070;-47
2022/08/09 03:43:13;;;;;;;11.30;6.70;;;;;;;14.53;100.00;102664.91;5046762;28;20135;-47
2022/08/09 03:45:38;;;;;;;13.98;7.10;;;;;;;14.51;100.00;102666.91;5054812;28;20236;-45
2022/08/09 03:48:04;;;;;;;10.75;6.97;;;;;;;14.51;100.00;102664.22;5057228;28;20033;-46
2022/08/09 03:50:31;;;;;;;8.88;7.10;;;;;;;14.49;100.00;102658.13;5055734;28;20020;-46
2022/08/09 03:53:00;;;;;;;11.95;6.88;;;;;;;14.52;100.00;102663.22;5052049;28;20128;-48
2022/08/09 03:55:26;;;;;;;12.55;6.65;;;;;;;14.49;100.00;102665.34;5046578;28;20028;-46
2022/08/09 03:57:52;;;;;;;8.90;6.60;;;;;;;14.49;100.00;102668.03;5035286;28;20399;-46
2022/08/09 04:00:18;;;;;;;11.85;6.75;;;;;;;14.51;100.00;102666.91;5035643;28;20063;-47
2022/08/09 04:02:45;;;;;;;10.27;6.93;;;;;;;14.44;100.00;102656.84;5037282;28;20438;-47
2022/08/09 04:05:10;;;;;;;12.95;7.13;;;;;;;14.46;100.00;102654.88;5052962;28;20021;-45
2022/08/09 04:07:35;;;;;;;15.88;7.03;;;;;;;14.41;100.00;102647.25;5040930;28;20371;-48
2022/08/09 04:10:01;;;;;;;16.30;7.72;;;;;;;14.43;100.00;102644.41;5034894;28;20087;-45
2022/08/09 04:12:46;;;;;;;18.42;7.50;;;;;;;14.48;100.00;102660.97;5055133;28;20024;-46
2022/08/09 04:15:12;;;;;;;31.92;7.63;;;;;;;14.44;100.00;102663.06;5054658;28;20349;-48
2022/08/09 04:17:39;;;;;;;40.75;8.15;;;;;;;14.39;100.00;102662.66;5055716;28;20024;-48
2022/08/09 04:20:06;;;;;;;23.25;8.02;;;;;;;14.36;100.00;102668.31;5055428;28;20021;-45
2022/08/09 04:22:31;;;;;;;12.95;7.22;;;;;;;14.36;100.00;102665.63;5035918;28;20024;-45
2022/08/09 04:24:57;;;;;;;13.75;7.20;;;;;;;14.35;100.00;102664.75;5040119;28;20028;-46
2022/08/09 04:27:22;;;;;;;13.80;7.60;;;;;;;14.39;100.00;102670.72;5049075;28;20772;-46
2022/08/09 04:29:48;;;;;;;15.38;7.55;;;;;;;14.41;100.00;102663.38;5038954;28;20040;-46
2022/08/09 04:32:13;;;;;;;12.45;7.25;;;;;;;14.39;100.00;102673.41;5034566;28;20209;-45
2022/08/09 04:34:38;;;;;;;10.07;6.88;;;;;;;14.43;100.00;102676.69;5038466;28;20470;-47
2022/08/09 04:37:04;;;;;;;12.07;7.10;;;;;;;14.43;100.00;102672.13;5044809;28;20033;-47
2022/08/09 04:39:29;;;;;;;12.23;7.20;;;;;;;14.42;100.00;102675.81;5041416;28;20435;-46
2022/08/09 04:41:54;;;;;;;19.77;7.80;;;;;;;14.45;100.00;102675.53;5054598;28;20320;-46
2022/08/09 04:44:20;;;;;;;16.10;7.00;;;;;;;14.53;100.00;102685.59;5054025;28;20505;-49
2022/08/09 04:46:45;;;;;;;16.33;7.90;;;;;;;14.52;100.00;102687.41;5045260;28;20038;-46
2022/08/09 04:49:10;;;;;;;14.82;7.47;;;;;;;14.46;100.00;102682.63;5055215;28;20035;-46
2022/08/09 04:51:36;;;;;;;12.10;8.18;;;;;;;14.46;100.00;102684.44;5055449;28;20056;-46
2022/08/09 04:54:01;;;;;;;11.95;7.53;;;;;;;14.50;100.00;102692.09;5054645;28;20034;-47
2022/08/09 04:56:27;;;;;;;15.68;7.55;;;;;;;14.51;100.00;102696.47;5041551;28;20040;-49
2022/08/09 04:58:52;;;;;;;13.43;7.70;;;;;;;14.58;100.00;102693.22;5034040;28;20737;-47
2022/08/09 05:01:18;;;;;;;10.52;7.20;;;;;;;14.58;100.00;102685.13;5035555;28;20493;-49
2022/08/09 05:03:43;;;;;;;13.27;7.82;;;;;;;14.63;100.00;102690.97;5055193;28;20112;-47
2022/08/09 05:06:12;;;;;;;16.75;8.38;;;;;;;14.62;100.00;102690.13;5053504;28;20081;-46
2022/08/09 05:08:37;;;;;;;14.73;8.57;;;;;;;14.66;100.00;102693.38;5035174;28;20380;-45
2022/08/09 05:11:03;;;;;;;13.88;8.20;;;;;;;14.67;100.00;102695.94;5039598;28;20033;-45
2022/08/09 05:13:29;;;;;;;10.48;7.97;;;;;;;14.71;100.00;102699.19;5035542;28;20039;-46
2022/08/09 05:15:54;;;;;;;13.05;8.68;;;;;;;14.74;100.00;102704.28;5033390;28;20021;-47
2022/08/09 05:18:19;;;;;;;14.63;8.50;;;;;;;14.81;100.00;102701.88;5054878;28;20020;-47
2022/08/09 05:20:44;;;;;;;15.68;8.52;;;;;;;14.82;100.00;102707.09;5055010;28;20331;-46
2022/08/09 05:23:10;;;;;;;12.35;8.80;;;;;;;14.85;100.00;102714.03;5054258;28;20065;-46
2022/08/09 05:25:35;;;;;;;14.77;8.88;;;;;;;14.90;100.00;102699.16;5054784;28;20585;-49
2022/08/09 05:28:00;;;;;;;16.83;9.10;;;;;;;14.97;100.00;102709.34;5041260;28;20174;-46
2022/08/09 05:30:26;;;;;;;23.05;9.68;;;;;;;14.96;100.00;102711.19;5049584;28;20395;-47
2022/08/09 05:32:52;;;;;;;15.23;8.82;;;;;;;14.98;100.00;102711.88;5054499;28;20021;-45
2022/08/09 05:35:18;;;;;;;13.57;8.90;;;;;;;15.00;100.00;102715.28;5051842;28;20156;-46
2022/08/09 05:37:43;;;;;;;16.58;8.48;;;;;;;15.05;100.00;102717.53;5054291;28;20111;-45
2022/08/09 05:40:09;;;;;;;12.82;8.80;;;;;;;15.07;100.00;102718.25;5050935;28;20029;-46
2022/08/09 05:42:34;;;;;;;17.17;8.65;;;;;;;15.11;100.00;102716.97;5054859;28;20028;-44
2022/08/09 05:45:00;;;;;;;13.82;8.05;;;;;;;15.13;100.00;102714.13;5036226;28;20025;-46
2022/08/09 05:47:26;;;;;;;15.30;9.38;;;;;;;15.13;100.00;102717.66;5034090;28;20021;-48
2022/08/09 05:49:53;;;;;;;18.40;8.60;;;;;;;15.16;100.00;102722.75;5034496;28;20033;-45
2022/08/09 05:52:19;;;;;;;17.83;9.23;;;;;;;15.22;100.00;102721.31;5044810;28;20036;-44
2022/08/09 05:54:44;;;;;;;16.67;9.10;;;;;;;15.25;100.00;102719.19;5053990;28;20028;-46
2022/08/09 05:57:10;;;;;;;16.58;9.10;;;;;;;15.33;100.00;102725.72;5054843;28;20056;-47
2022/08/09 05:59:35;;;;;;;14.60;9.60;;;;;;;15.37;100.00;102725.25;5055854;28;20044;-44
2022/08/09 06:02:00;;;;;;;18.38;9.23;;;;;;;15.42;100.00;102728.34;5052950;28;20056;-46
2022/08/09 06:04:25;;;;;;;14.45;9.50;;;;;;;15.48;100.00;102729.63;5044514;28;20386;-48
2022/08/09 06:06:51;;;;;;;16.60;9.13;;;;;;;15.55;100.00;102730.72;5048854;28;20048;-48
2022/08/09 06:09:17;;;;;;;17.08;9.35;;;;;;;15.60;100.00;102739.19;5037731;28;20475;-46
2022/08/09 06:11:43;;;;;;;18.67;9.43;;;;;;;15.63;100.00;102738.91;5039174;28;20025;-45
2022/08/09 06:14:08;;;;;;;13.30;9.20;;;;;;;15.71;100.00;102742.69;5055574;28;20112;-48
2022/08/09 06:16:33;;;;;;;15.27;9.15;;;;;;;15.79;100.00;102740.16;5052590;28;20599;-45
2022/08/09 06:18:59;;;;;;;12.13;8.85;;;;;;;15.87;100.00;102745.66;5038824;28;20029;-45
2022/08/09 06:21:24;;;;;;;14.35;8.73;;;;;;;15.99;100.00;102740.91;5045547;28;20059;-49
2022/08/09 06:23:51;;;;;;;19.80;9.50;;;;;;;16.07;100.00;102738.28;5057395;28;20024;-47
2022/08/09 06:26:17;;;;;;;17.95;9.30;;;;;;;16.18;100.00;102751.56;5058006;28;20495;-46
2022/08/09 06:28:42;;;;;;;14.32;10.10;;;;;;;16.25;100.00;102746.41;5055697;28;20487;-45
2022/08/09 06:31:08;;;;;;;17.83;9.18;;;;;;;16.34;100.00;102745.47;5056840;28;20029;-49
2022/08/09 06:33:33;;;;;;;17.20;9.32;;;;;;;16.49;100.00;102747.66;5057951;28;20404;-45
2022/08/09 06:35:58;;;;;;;16.75;9.35;;;;;;;16.59;100.00;102743.03;5042645;28;20048;-48
2022/08/09 06:38:24;;;;;;;15.30;8.82;;;;;;;16.69;100.00;102749.19;5035285;28;20624;-44
2022/08/09 06:40:49;;;;;;;14.57;8.45;;;;;;;16.77;100.00;102746.56;5052882;28;20032;-44
2022/08/09 06:43:14;;;;;;;16.23;9.18;;;;;;;16.85;100.00;102751.22;5058221;28;20485;-49
2022/08/09 06:45:40;;;;;;;20.63;8.70;;;;;;;16.90;100.00;102742.66;5052301;28;20028;-46
2022/08/09 06:48:06;;;;;;;13.27;8.98;;;;;;;16.96;100.00;102744.75;5038145;28;20029;-48
2022/08/09 06:50:31;;;;;;;16.73;8.73;;;;;;;17.02;100.00;102738.69;5037671;28;20021;-46
2022/08/09 06:52:57;;;;;;;18.08;8.63;;;;;;;17.07;100.00;102752.56;5050302;28;20017;-49
2022/08/09 06:55:27;;;;;;;15.73;8.52;;;;;;;17.20;100.00;102740.53;5057117;28;20024;-47
2022/08/09 06:57:52;;;;;;;18.55;8.70;;;;;;;17.28;100.00;102754.91;5056468;28;20111;-48
2022/08/09 07:00:17;;;;;;;16.55;8.20;;;;;;;17.39;100.00;102751.09;5036373;28;20119;-48
2022/08/09 07:02:43;;;;;;;17.25;8.07;;;;;;;17.49;100.00;102756.41;5036719;28;20056;-45
2022/08/09 07:05:08;;;;;;;20.38;8.32;;;;;;;17.53;100.00;102760.47;5037132;28;20435;-46
2022/08/09 07:07:34;;;;;;;17.67;8.25;;;;;;;17.67;100.00;102764.44;5044368;28;20021;-46
2022/08/09 07:09:59;;;;;;;16.23;7.93;;;;;;;17.78;100.00;102758.72;5051486;28;20081;-48
2022/08/09 07:12:24;;;;;;;14.27;8.18;;;;;;;17.96;100.00;102763.25;5038715;28;20297;-46
2022/08/09 07:14:50;;;;;;;11.70;7.90;;;;;;;18.08;100.00;102765.47;5037491;28;20028;-48
2022/08/09 07:17:15;;;;;;;16.35;7.78;;;;;;;18.19;100.00;102760.78;5039710;28;20508;-47
2022/08/09 07:19:41;;;;;;;12.95;7.88;;;;;;;18.22;100.00;102761.28;5037108;28;20029;-49
2022/08/09 07:22:06;;;;;;;15.18;7.85;;;;;;;18.35;100.00;102770.81;5036109;28;20446;-46
2022/08/09 07:24:32;;;;;;;14.98;7.57;;;;;;;18.45;100.00;102760.69;5050212;28;20047;-46
2022/08/09 07:26:58;;;;;;;17.55;7.70;;;;;;;18.69;100.00;102767.13;5056748;28;20086;-46
2022/08/09 07:29:24;;;;;;;12.57;7.00;;;;;;;18.89;100.00;102765.81;5036484;28;20361;-47
2022/08/09 07:31:49;;;;;;;15.00;7.20;;;;;;;19.03;100.00;102766.16;5035473;28;20328;-49
2022/08/09 07:34:15;;;;;;;14.45;7.05;;;;;;;19.02;100.00;102759.88;5036815;28;20025;-46
2022/08/09 07:36:40;;;;;;;11.93;7.10;;;;;;;19.10;100.00;102761.75;5036993;28;20040;-50
2022/08/09 07:39:05;;;;;;;15.15;7.03;;;;;;;19.25;100.00;102770.88;5034763;28;20550;-45
2022/08/09 07:41:31;;;;;;;16.38;6.72;;;;;;;19.43;100.00;102769.81;5052912;28;20356;-46
2022/08/09 07:43:56;;;;;;;12.82;6.97;;;;;;;19.62;100.00;102768.56;5054118;28;20509;-45
2022/08/09 07:46:22;;;;;;;10.50;6.80;;;;;;;19.80;100.00;102774.63;5035275;28;20102;-45
2022/08/09 07:48:47;;;;;;;12.52;6.15;;;;;;;19.93;99.77;102774.91;5036776;28;20029;-49
2022/08/09 07:51:13;;;;;;;18.70;7.07;;;;;;;20.05;99.04;102783.50;5053216;28;20127;-49
2022/08/09 07:53:38;;;;;;;10.57;6.50;;;;;;;20.15;97.11;102777.88;5039559;28;20277;-49
2022/08/09 07:56:04;;;;;;;11.88;6.55;;;;;;;20.26;98.22;102782.88;5053426;28;20183;-45
2022/08/09 07:58:30;;;;;;;12.95;6.53;;;;;;;20.30;96.11;102781.53;5039410;28;20040;-49
2022/08/09 08:00:55;;;;;;;13.73;6.20;;;;;;;20.38;95.83;102777.06;5054973;28;20289;-49
2022/08/09 08:03:20;;;;;;;16.63;6.10;;;;;;;20.48;94.41;102781.25;5048382;28;20083;-48
2022/08/09 08:05:46;;;;;;;12.85;5.93;;;;;;;20.49;93.76;102779.38;5036038;28;20209;-49
2022/08/09 08:08:12;;;;;;;13.52;6.10;;;;;;;20.63;94.74;102784.03;5035146;28;20013;-48
2022/08/09 08:10:37;;;;;;;12.52;6.25;;;;;;;20.79;94.53;102790.38;5053705;28;20676;-48
2022/08/09 08:13:03;;;;;;;11.70;6.10;;;;;;;20.88;92.89;102792.00;5046829;28;20110;-45
2022/08/09 08:15:28;;;;;;;14.70;5.60;;;;;;;20.99;92.65;102780.69;5053748;28;20048;-48
2022/08/09 08:17:53;;;;;;;15.73;5.53;;;;;;;21.18;nan;102784.78;5048447;28;20331;-46
2022/08/09 08:20:20;;;;;;;9.13;5.38;;;;;;;21.18;89.63;102784.78;5035467;28;20049;-46
2022/08/09 08:22:46;;;;;;;12.52;5.65;;;;;;;21.11;89.29;102770.22;5036170;28;20535;-49
2022/08/09 08:25:11;;;;;;;10.65;5.25;;;;;;;21.18;89.67;102773.94;5050741;28;20035;-47
2022/08/09 08:27:37;;;;;;;9.40;5.05;;;;;;;21.24;90.32;102772.34;5055113;28;20020;-47
2022/08/09 08:30:03;;;;;;;10.75;4.60;;;;;;;21.43;89.18;102773.66;5053535;28;20532;-45
2022/08/09 08:32:29;;;;;;;13.85;5.35;;;;;;;21.65;90.11;102773.78;5054272;28;20350;-49
2022/08/09 08:34:56;;;;;;;9.65;5.50;;;;;;;21.73;87.66;102770.97;5055993;28;20443;-46
2022/08/09 08:37:21;;;;;;;11.55;5.07;;;;;;;21.90;86.47;102769.75;5054441;28;20364;-47
2022/08/09 08:39:47;;;;;;;14.93;5.03;;;;;;;21.94;85.49;102772.91;5038773;28;20580;-45
2022/08/09 08:42:13;;;;;;;8.93;4.68;;;;;;;22.05;86.16;102763.44;5035615;28;20379;-49
2022/08/09 08:44:40;;;;;;;12.43;5.05;;;;;;;22.14;84.55;102773.16;5040812;28;20024;-50
2022/08/09 08:47:07;;;;;;;8.15;4.40;;;;;;;22.33;84.44;102783.47;5048244;28;20050;-47
2022/08/09 08:49:36;;;;;;;12.43;4.22;;;;;;;22.33;82.50;102778.00;5053068;28;20032;-44
2022/08/09 08:52:01;;;;;;;13.18;4.80;;;;;;;22.38;82.42;102787.50;5035502;28;20430;-48
2022/08/09 08:54:27;;;;;;;10.68;5.20;;;;;;;22.46;82.45;102792.84;5038354;28;20016;-47
2022/08/09 08:56:53;;;;;;;6.55;4.03;;;;;;;22.46;82.27;102793.66;5043527;28;20063;-48
2022/08/09 08:59:19;;;;;;;6.18;4.10;;;;;;;22.56;81.99;102792.53;5037331;28;20056;-48
2022/08/09 09:01:47;;;;;;;6.32;3.47;;;;;;;22.79;81.24;102795.88;5034630;28;20426;-47
2022/08/09 09:04:12;;;;;;;7.80;4.47;;;;;;;22.79;77.30;102787.69;5034026;28;20036;-49
2022/08/09 09:06:40;;;;;;;8.00;4.00;;;;;;;22.46;78.35;102792.84;5032958;28;20152;-49
2022/08/09 09:09:06;;;;;;;21.50;4.20;;;;;;;22.63;80.38;102793.41;5034183;28;20051;-50
2022/08/09 09:11:34;;;;;;;12.27;3.70;;;;;;;22.86;80.13;102788.63;5035249;28;20431;-46
2022/08/09 09:14:08;;;;;;;9.77;3.08;;;;;;;22.90;77.42;102786.34;5035659;28;20013;-47
2022/08/09 09:16:34;;;;;;;8.60;3.00;;;;;;;23.01;79.13;102787.69;5036499;28;20027;-50
2022/08/09 09:19:04;;;;;;;5.43;2.50;;;;;;;22.95;75.37;102789.31;5035023;28;20029;-48
2022/08/09 09:21:30;;;;;;;9.40;3.10;;;;;;;23.15;75.82;102799.56;5044101;28;20440;-46
2022/08/09 09:24:02;;;;;;;6.20;2.78;;;;;;;23.32;75.11;102795.53;5034240;28;20527;-49
2022/08/09 09:26:28;;;;;;;7.28;2.65;;;;;;;23.41;74.18;102796.22;5050968;28;20043;-47
2022/08/09 09:28:53;;;;;;;7.47;2.38;;;;;;;23.57;74.64;102795.03;5038329;28;20747;-49
2022/08/09 09:31:21;;;;;;;6.65;2.97;;;;;;;23.53;70.81;102796.50;5048726;28;20029;-51
2022/08/09 09:33:46;;;;;;;4.00;2.08;;;;;;;23.74;68.15;102790.94;5053413;28;20369;-48
2022/08/09 09:36:12;;;;;;;7.63;2.40;;;;;;;23.90;62.94;102787.06;5036673;28;20304;-51
2022/08/09 09:38:55;;;;;;;3.47;1.80;;;;;;;24.17;62.91;102798.09;5034745;28;20420;-49
2022/08/09 09:41:26;;;;;;;2.85;1.50;;;;;;;24.19;58.38;102794.09;5034474;28;20114;-46
2022/08/09 09:43:57;;;;;;;6.78;1.40;;;;;;;24.41;59.53;102788.50;5046374;28;20519;-48
2022/08/09 09:46:30;;;;;;;6.35;1.70;;;;;;;24.52;58.86;102790.59;5051802;28;20126;-47
2022/08/09 09:49:22;;;;;;;4.53;1.80;;;;;;;24.67;59.74;102800.56;5054568;28;20067;-49
2022/08/09 09:51:48;;;;;;;4.85;1.40;;;;;;;24.83;56.55;102793.84;5035620;28;20089;-49
2022/08/09 09:54:17;;;;;;;4.68;1.50;;;;;;;24.89;55.97;102790.28;5032909;28;20040;-50
2022/08/09 09:56:44;;;;;;;3.22;1.33;;;;;;;24.89;53.35;102796.56;5034770;28;20019;-49
2022/08/09 09:59:11;;;;;;;3.08;1.23;;;;;;;24.97;51.91;102794.66;5043678;28;20076;-49
2022/08/09 10:01:37;;;;;;;4.90;1.40;;;;;;;25.04;53.10;102796.38;5033391;28;20505;-47
2022/08/09 10:04:03;;;;;;;4.72;1.20;;;;;;;25.20;52.57;102788.78;5041229;28;20094;-50
2022/08/09 10:06:40;;;;;;;3.90;1.25;;;;;;;25.12;52.82;102792.59;5048310;28;20487;-48
2022/08/09 10:09:07;;;;;;;5.25;1.30;;;;;;;25.15;51.22;102792.16;5033721;28;20029;-49
2022/08/09 10:11:34;;;;;;;2.90;1.17;;;;;;;25.33;52.96;102799.75;5045418;28;20468;-48
2022/08/09 10:14:00;;;;;;;6.40;1.10;;;;;;;25.44;50.53;102790.03;5050699;28;20021;-51
2022/08/09 10:16:29;;;;;;;1.70;0.90;;;;;;;25.54;50.83;102786.88;5033391;28;20368;-50
2022/08/09 10:18:55;;;;;;;3.25;1.02;;;;;;;25.52;49.65;102797.19;5034407;28;20037;-47
2022/08/09 10:21:22;;;;;;;1.92;0.98;;;;;;;25.61;49.64;102799.50;5034621;28;20467;-48
2022/08/09 10:23:49;;;;;;;1.73;0.90;;;;;;;25.78;49.66;102788.91;5033672;28;20901;-50
2022/08/09 10:26:14;;;;;;;3.80;1.10;;;;;;;25.79;49.26;102776.06;5049525;28;20103;-47
2022/08/09 10:28:42;;;;;;;5.85;1.20;;;;;;;25.76;48.37;102788.25;5054734;28;20124;-50
2022/08/09 10:31:09;;;;;;;6.88;0.90;;;;;;;25.72;49.56;102780.72;5046485;28;20172;-49
2022/08/09 10:33:35;;;;;;;2.63;0.90;;;;;;;25.84;48.08;102784.47;5048130;28;20031;-49
2022/08/09 10:36:01;;;;;;;5.32;1.00;;;;;;;25.91;48.31;102774.31;5037009;28;20375;-45
2022/08/09 10:38:26;;;;;;;3.63;0.90;;;;;;;26.03;46.75;102779.97;5048404;28;20434;-51
2022/08/09 10:40:52;;;;;;;2.25;1.08;;;;;;;26.11;46.65;102773.44;5045177;28;20021;-49
2022/08/09 10:43:17;;;;;;;1.95;0.90;;;;;;;26.18;46.31;102766.00;5034563;28;20104;-47
2022/08/09 10:45:44;;;;;;;5.65;0.80;;;;;;;26.35;46.51;102769.91;5034533;28;20029;-48
2022/08/09 10:48:16;;;;;;;1.88;0.80;;;;;;;26.41;46.06;102762.72;5037881;28;20031;-50
2022/08/09 10:51:13;;;;;;;1.45;0.73;;;;;;;26.52;46.43;102763.91;5037824;28;20021;-48
2022/08/09 10:53:55;;;;;;;3.05;0.90;;;;;;;26.74;47.78;102765.22;5039476;28;20369;-49
2022/08/09 10:56:36;;;;;;;2.40;0.90;;;;;;;26.79;45.18;102764.56;5038274;28;20146;-50
2022/08/09 10:59:21;;;;;;;3.67;0.90;;;;;;;26.67;45.59;102750.75;5039120;28;20197;-48
2022/08/09 11:01:50;;;;;;;3.15;0.80;;;;;;;26.59;43.20;102742.75;5051788;28;20032;-50
2022/08/09 11:04:22;;;;;;;3.38;0.60;;;;;;;26.77;45.29;102747.50;5039822;28;20446;-49
2022/08/09 11:07:08;;;;;;;2.72;0.88;;;;;;;26.96;44.94;102760.19;5035921;28;20031;-45
2022/08/09 11:09:36;;;;;;;2.38;0.80;;;;;;;27.00;43.09;102766.06;5037303;28;20047;-49
2022/08/09 11:12:10;;;;;;;2.78;0.70;;;;;;;26.97;41.53;102761.88;5057705;28;20054;-49
2022/08/09 11:14:40;;;;;;;5.03;0.70;;;;;;;27.11;42.26;102765.31;5057229;28;20025;-49
2022/08/09 11:17:11;;;;;;;;;;;;;;;27.40;42.84;102754.72;5036532;28;20032;-49